Time;durP1;ratioP1;P1;durP2;ratioP2;P2;SDS_P1;SDS_P2;PMS_P1;PMS_P2;Temp;Humidity;BMP_temperature;BMP_pressure;BME280_temperature;BME280_humidity;BME280_pressure;Samples;Min_cycle;Max_cycle;Signal;HPM_P1;HPM_P2
2023/12/05 00:00:39;;;;;;;19.90;9.20;;;;;;;-5.07;80.80;95810.86;106604;1275;22981;-80
2023/12/05 00:03:27;;;;;;;18.60;9.40;;;;;;;-5.10;80.57;95807.83;106588;1275;25377;-80
2023/12/05 00:05:56;;;;;;;23.00;11.70;;;;;;;-5.13;80.54;95812.83;106647;1275;22505;-80
2023/12/05 00:08:25;;;;;;;28.50;15.10;;;;;;;-5.16;80.75;95811.86;106596;1275;22622;-80
2023/12/05 00:10:54;;;;;;;39.40;18.80;;;;;;;-5.16;81.16;95808.40;106587;1257;22546;-80
2023/12/05 00:13:22;;;;;;;38.90;18.10;;;;;;;-5.18;81.28;95811.92;106688;1275;25351;-80
2023/12/05 00:15:50;;;;;;;39.90;17.10;;;;;;;-5.17;81.21;95811.30;106593;1275;22636;-80
2023/12/05 00:18:19;;;;;;;40.30;17.20;;;;;;;-5.19;81.13;95815.80;106626;1275;25447;-80
2023/12/05 00:20:47;;;;;;;35.10;16.00;;;;;;;-5.22;81.10;95810.88;106689;1268;22542;-80
2023/12/05 00:23:15;;;;;;;33.60;15.50;;;;;;;-5.22;80.96;95811.91;106631;1275;24380;-80
2023/12/05 00:25:43;;;;;;;26.40;14.60;;;;;;;-5.24;80.93;95813.04;106579;1275;25583;-80
2023/12/05 00:28:12;;;;;;;25.30;13.30;;;;;;;-5.22;80.77;95812.27;106638;1275;25426;-80
2023/12/05 00:30:40;;;;;;;20.90;12.00;;;;;;;-5.15;80.90;95802.08;106613;1275;22529;-80
2023/12/05 00:33:08;;;;;;;17.40;11.30;;;;;;;-5.12;80.66;95799.69;106655;1275;22533;-81
2023/12/05 00:35:37;;;;;;;22.50;12.10;;;;;;;-5.07;80.86;95795.74;106803;1275;22463;-80
2023/12/05 00:38:05;;;;;;;21.60;11.70;;;;;;;-5.02;80.67;95799.60;106904;1275;22562;-80
2023/12/05 00:40:33;;;;;;;20.60;11.30;;;;;;;-4.97;80.60;95792.94;106612;1273;25464;-80
2023/12/05 00:43:02;;;;;;;19.50;10.70;;;;;;;-4.97;80.21;95791.23;106611;1275;25490;-80
2023/12/05 00:45:30;;;;;;;25.70;13.40;;;;;;;-4.97;79.93;95785.02;106656;1275;24223;-80
2023/12/05 00:47:58;;;;;;;20.10;11.40;;;;;;;-5.01;79.63;95776.31;106662;1275;24435;-80
2023/12/05 00:50:26;;;;;;;20.30;10.90;;;;;;;-5.00;79.88;95781.48;106417;1265;247578;-80
2023/12/05 00:53:05;;;;;;;15.50;9.50;;;;;;;-4.99;79.79;95785.46;106607;1265;22943;-80
2023/12/05 00:55:35;;;;;;;20.80;11.70;;;;;;;-5.02;79.51;95777.48;106720;1275;22635;-80
2023/12/05 00:58:04;;;;;;;19.30;11.00;;;;;;;-5.03;79.58;95766.63;106741;1275;23926;-80
2023/12/05 01:00:32;;;;;;;19.10;11.80;;;;;;;-5.04;79.31;95772.60;106745;1275;22516;-80
2023/12/05 01:03:01;;;;;;;23.10;11.70;;;;;;;-5.07;79.41;95772.44;106716;1271;22518;-80
2023/12/05 01:05:29;;;;;;;22.00;11.30;;;;;;;-4.98;79.94;95774.20;106603;1275;22544;-80
2023/12/05 01:07:58;;;;;;;17.80;10.90;;;;;;;-4.94;79.70;95776.79;106602;1275;25419;-80
2023/12/05 01:10:26;;;;;;;20.10;12.10;;;;;;;-4.98;79.49;95770.61;106640;1275;22640;-80
2023/12/05 01:12:55;;;;;;;21.00;11.40;;;;;;;-5.05;79.55;95764.63;106831;1275;25474;-80
2023/12/05 01:15:24;;;;;;;20.50;11.30;;;;;;;-5.12;79.94;95755.74;107002;1275;25435;-80
2023/12/05 01:17:52;;;;;;;17.70;9.00;;;;;;;-5.11;79.88;95761.45;106858;1275;24255;-80
2023/12/05 01:20:21;;;;;;;18.10;9.40;;;;;;;-5.19;79.76;95766.44;106607;1275;22677;-80
2023/12/05 01:22:49;;;;;;;20.00;10.40;;;;;;;-5.22;79.72;95777.63;106608;1275;22521;-80
2023/12/05 01:25:17;;;;;;;20.20;11.30;;;;;;;-5.18;79.40;95777.63;106616;1275;22520;-80
2023/12/05 01:27:46;;;;;;;18.60;9.60;;;;;;;-5.16;79.19;95766.04;106615;1275;25376;-80
2023/12/05 01:30:14;;;;;;;26.70;12.30;;;;;;;-5.19;78.96;95762.31;106465;1275;22636;-80
2023/12/05 01:32:42;;;;;;;18.80;10.50;;;;;;;-5.22;78.96;95763.91;106653;1275;24236;-80
2023/12/05 01:35:11;;;;;;;27.40;13.00;;;;;;;-5.25;79.30;95757.96;106627;1275;24281;-80
2023/12/05 01:37:39;;;;;;;31.40;15.00;;;;;;;-5.29;80.06;95750.41;106481;1275;22534;-80
2023/12/05 01:40:09;;;;;;;29.40;13.90;;;;;;;-5.31;80.59;95749.98;106701;1275;23139;-80
2023/12/05 01:42:38;;;;;;;23.70;12.40;;;;;;;-5.32;80.64;95745.45;107036;1275;25933;-80
2023/12/05 01:45:08;;;;;;;26.40;12.90;;;;;;;-5.32;80.96;95732.60;106845;1275;22927;-80
2023/12/05 01:47:39;;;;;;;27.40;13.70;;;;;;;-5.29;81.07;95737.70;106647;1275;22702;-80
2023/12/05 01:50:14;;;;;;;29.90;15.00;;;;;;;-5.30;81.40;95740.08;106620;1275;22624;-80
2023/12/05 01:52:48;;;;;;;51.00;19.90;;;;;;;-5.33;81.45;95738.54;106611;1275;22526;-79
2023/12/05 01:55:16;;;;;;;38.80;16.90;;;;;;;-5.35;81.66;95735.73;106642;1275;23025;-80
2023/12/05 01:57:48;;;;;;;23.80;13.10;;;;;;;-5.33;81.76;95731.17;106815;1275;25355;-80
2023/12/05 02:00:17;;;;;;;33.20;15.90;;;;;;;-5.31;81.71;95726.30;106844;1275;24376;-80
2023/12/05 02:02:48;;;;;;;29.40;15.30;;;;;;;-5.30;81.74;95724.83;106797;1275;22579;-80
2023/12/05 02:05:16;;;;;;;35.80;16.00;;;;;;;-5.28;81.54;95718.04;106674;1275;22647;-80
2023/12/05 02:07:45;;;;;;;33.70;13.90;;;;;;;-5.25;81.57;95722.82;106654;1275;24296;-80
2023/12/05 02:10:14;;;;;;;26.80;12.30;;;;;;;-5.22;81.67;95722.23;106604;1274;25379;-80
2023/12/05 02:12:43;;;;;;;28.40;13.10;;;;;;;-5.22;81.76;95716.08;106624;1275;22563;-80
2023/12/05 02:15:11;;;;;;;25.40;10.60;;;;;;;-5.19;81.37;95718.23;106847;1275;22526;-80
2023/12/05 02:18:11;;;;;;;54.30;22.30;;;;;;;-5.19;81.58;95720.29;106677;1275;25355;-80
2023/12/05 02:20:51;;;;;;;31.00;15.20;;;;;;;-5.18;81.81;95715.02;106794;1275;22750;-80
2023/12/05 02:23:45;;;;;;;36.20;16.90;;;;;;;-5.15;81.61;95717.72;106584;1275;22535;-80
2023/12/05 02:26:13;;;;;;;20.00;11.00;;;;;;;-5.05;81.43;95725.34;106638;1275;23154;-80
2023/12/05 02:28:42;;;;;;;27.60;12.40;;;;;;;-4.95;81.29;95709.81;106571;1275;22522;-80
2023/12/05 02:31:10;;;;;;;29.40;15.10;;;;;;;-4.88;80.96;95698.14;106642;1275;22516;-80
2023/12/05 02:33:39;;;;;;;28.30;12.80;;;;;;;-4.79;80.95;95680.48;106767;1275;23252;-80
2023/12/05 02:36:19;;;;;;;20.50;10.10;;;;;;;-4.72;80.73;95658.29;106641;1275;22521;-80
2023/12/05 02:39:05;;;;;;;19.80;11.10;;;;;;;-4.70;80.10;95660.26;106633;1275;22530;-80
2023/12/05 02:41:38;;;;;;;29.10;14.50;;;;;;;-4.69;79.72;95669.54;106903;1275;25483;-80
2023/12/05 02:44:11;;;;;;;22.00;12.20;;;;;;;-4.69;79.81;95692.73;106747;1275;24250;-80
2023/12/05 02:46:41;;;;;;;21.40;11.40;;;;;;;-4.65;79.97;95692.90;106640;1275;24336;-80
2023/12/05 02:49:11;;;;;;;18.60;10.50;;;;;;;-4.61;79.87;95693.91;106601;1275;22520;-80
2023/12/05 02:51:41;;;;;;;20.00;11.40;;;;;;;-4.54;79.95;95692.83;106609;1275;25413;-80
2023/12/05 02:54:09;;;;;;;20.60;11.30;;;;;;;-4.51;79.64;95682.81;106949;1275;22636;-80
2023/12/05 02:56:37;;;;;;;18.50;9.70;;;;;;;-4.44;79.73;95678.64;106877;1275;22525;-80
2023/12/05 02:59:05;;;;;;;20.70;10.90;;;;;;;-4.45;78.83;95680.84;106797;1275;22559;-80
2023/12/05 03:01:40;;;;;;;17.10;8.30;;;;;;;-4.53;78.56;95680.34;106835;1275;25239;-80
2023/12/05 03:04:08;;;;;;;24.90;12.80;;;;;;;-4.60;78.69;95687.27;106544;1275;22512;-80
2023/12/05 03:06:37;;;;;;;33.40;16.90;;;;;;;-4.58;79.15;95692.48;106611;1275;24256;-80
2023/12/05 03:09:05;;;;;;;29.20;15.10;;;;;;;-4.54;79.40;95694.20;106668;1275;22612;-80
2023/12/05 03:11:34;;;;;;;57.00;26.50;;;;;;;-4.53;79.33;95696.98;106603;1275;25352;-80
2023/12/05 03:14:03;;;;;;;34.90;17.60;;;;;;;-4.52;79.32;95689.10;106601;1275;22523;-80
2023/12/05 03:16:32;;;;;;;34.00;17.90;;;;;;;-4.51;79.35;95690.02;106747;1275;25576;-80
2023/12/05 03:19:01;;;;;;;23.70;12.40;;;;;;;-4.56;79.29;95686.92;106795;1275;22532;-80
2023/12/05 03:21:30;;;;;;;23.00;11.50;;;;;;;-4.62;79.24;95711.02;106957;1265;25470;-80
2023/12/05 03:23:58;;;;;;;20.40;10.80;;;;;;;-4.65;79.36;95711.96;106772;1275;24260;-80
2023/12/05 03:26:27;;;;;;;22.30;12.10;;;;;;;-4.66;79.60;95717.73;106615;1275;25496;-80
2023/12/05 03:28:55;;;;;;;20.10;10.80;;;;;;;-4.67;79.56;95715.95;106677;1275;23881;-80
2023/12/05 03:31:23;;;;;;;11.60;7.50;;;;;;;-4.71;79.51;95707.23;106830;1275;23921;-80
2023/12/05 03:33:51;;;;;;;30.10;15.60;;;;;;;-4.76;79.42;95707.55;106623;1275;22523;-80
2023/12/05 03:36:20;;;;;;;28.00;13.80;;;;;;;-4.80;79.60;95691.27;106807;1275;25536;-80
2023/12/05 03:38:48;;;;;;;34.30;17.90;;;;;;;-4.84;79.92;95693.33;106831;1275;22542;-80
2023/12/05 03:41:16;;;;;;;25.80;13.10;;;;;;;-4.87;79.82;95685.48;106761;1275;24293;-80
2023/12/05 03:43:45;;;;;;;24.90;12.90;;;;;;;-4.88;79.83;95689.55;106624;1275;24382;-80
2023/12/05 03:46:13;;;;;;;30.00;14.40;;;;;;;-4.87;80.01;95683.92;106620;1275;22529;-80
2023/12/05 03:48:43;;;;;;;27.90;14.00;;;;;;;-4.89;80.09;95684.52;106735;1275;23735;-80
2023/12/05 03:51:12;;;;;;;29.80;13.70;;;;;;;-4.96;80.34;95683.86;106666;1275;24272;-80
2023/12/05 03:53:41;;;;;;;22.10;11.10;;;;;;;-4.98;80.30;95682.41;106646;1275;25338;-80
2023/12/05 03:56:09;;;;;;;16.60;9.50;;;;;;;-5.00;80.61;95687.14;106599;1275;24914;-80
2023/12/05 03:58:40;;;;;;;31.90;14.00;;;;;;;-5.04;80.73;95683.23;106635;1275;25499;-80
2023/12/05 04:01:08;;;;;;;42.10;16.70;;;;;;;-5.06;80.96;95673.52;106830;1275;22514;-80
2023/12/05 04:03:36;;;;;;;47.10;20.60;;;;;;;-5.06;81.12;95673.73;106662;1275;22536;-80
2023/12/05 04:06:05;;;;;;;29.60;13.70;;;;;;;-5.01;80.82;95671.33;106642;1275;22540;-80
2023/12/05 04:08:33;;;;;;;45.90;19.70;;;;;;;-4.99;81.00;95667.82;106616;1275;24398;-80
2023/12/05 04:11:02;;;;;;;51.80;22.60;;;;;;;-4.94;81.15;95668.71;106794;1275;23152;-80
2023/12/05 04:13:30;;;;;;;72.90;35.20;;;;;;;-4.89;81.58;95672.34;106599;1264;22516;-80
2023/12/05 04:15:58;;;;;;;39.60;20.60;;;;;;;-4.82;81.69;95673.15;106866;1275;22598;-79
2023/12/05 04:18:27;;;;;;;37.10;20.10;;;;;;;-4.73;81.55;95674.55;106923;1275;23115;-79
2023/12/05 04:20:56;;;;;;;231.70;113.80;;;;;;;-4.64;81.30;95672.48;106686;1275;22527;-79
2023/12/05 04:23:25;;;;;;;230.50;108.00;;;;;;;-4.53;81.28;95669.50;106616;1263;22524;-79
2023/12/05 04:25:53;;;;;;;116.80;57.50;;;;;;;-4.47;80.50;95670.60;106627;1275;24090;-79
2023/12/05 04:28:22;;;;;;;85.00;42.00;;;;;;;-4.41;80.66;95667.61;106582;1275;22531;-79
2023/12/05 04:30:50;;;;;;;117.00;56.10;;;;;;;-4.27;80.70;95666.91;106777;1275;22550;-79
2023/12/05 04:33:18;;;;;;;65.10;30.70;;;;;;;-4.24;79.79;95663.45;106717;1275;26675;-79
2023/12/05 04:35:46;;;;;;;27.10;13.20;;;;;;;-4.20;80.22;95668.58;106623;1275;24346;-79
2023/12/05 04:38:16;;;;;;;100.70;52.50;;;;;;;-4.13;79.64;95662.98;106605;1275;23900;-79
2023/12/05 04:40:44;;;;;;;23.20;12.10;;;;;;;-4.09;79.66;95662.14;106830;1275;24281;-79
2023/12/05 04:43:12;;;;;;;227.40;115.90;;;;;;;-4.01;79.48;95655.21;106606;1271;22550;-79
2023/12/05 04:45:40;;;;;;;82.50;44.30;;;;;;;-3.98;78.89;95649.85;106638;1275;24357;-77
2023/12/05 04:48:10;;;;;;;32.10;18.10;;;;;;;-3.95;79.21;95658.38;106606;1275;22520;-79
2023/12/05 04:50:39;;;;;;;24.50;12.60;;;;;;;-3.95;78.30;95657.18;106466;1275;24370;-80
2023/12/05 04:53:07;;;;;;;22.70;12.60;;;;;;;-3.97;78.12;95647.27;106646;1275;22555;-79
2023/12/05 04:55:35;;;;;;;98.60;61.10;;;;;;;-3.96;78.36;95641.13;106621;1275;25318;-79
2023/12/05 04:58:03;;;;;;;61.50;38.90;;;;;;;-3.97;77.94;95637.50;106582;1275;22531;-79
2023/12/05 05:00:32;;;;;;;16.30;10.70;;;;;;;-3.98;77.99;95643.65;106656;1275;24260;-79
2023/12/05 05:03:01;;;;;;;27.40;16.30;;;;;;;-4.00;77.85;95644.42;106675;1275;22520;-79
2023/12/05 05:05:29;;;;;;;22.40;12.40;;;;;;;-4.04;77.93;95638.27;106708;1275;22518;-79
2023/12/05 05:07:57;;;;;;;24.70;15.10;;;;;;;-4.13;77.60;95647.71;106619;1275;22632;-79
2023/12/05 05:10:25;;;;;;;31.90;15.20;;;;;;;-4.17;77.83;95647.40;106577;1275;22638;-80
2023/12/05 05:12:54;;;;;;;23.30;13.40;;;;;;;-4.23;78.21;95637.38;106694;1275;22786;-79
2023/12/05 05:15:22;;;;;;;17.70;10.40;;;;;;;-4.25;78.17;95636.10;106675;1275;24462;-80
2023/12/05 05:17:50;;;;;;;896.70;461.70;;;;;;;-4.26;78.46;95642.77;106624;1275;23067;-78
2023/12/05 05:20:20;;;;;;;432.40;193.50;;;;;;;-4.26;78.31;95642.23;106685;1275;22526;-79
2023/12/05 05:22:48;;;;;;;97.60;43.10;;;;;;;-4.26;78.31;95641.88;106667;1275;23929;-79
2023/12/05 05:25:18;;;;;;;232.40;98.40;;;;;;;-4.25;78.35;95645.38;106592;1275;25518;-79
2023/12/05 05:27:47;;;;;;;245.50;103.20;;;;;;;-4.25;78.39;95642.80;106729;1275;23983;-78
2023/12/05 05:30:15;;;;;;;102.50;46.20;;;;;;;-4.25;78.50;95641.41;106638;1275;22698;-79
2023/12/05 05:32:43;;;;;;;35.30;16.90;;;;;;;-4.24;78.47;95640.23;106637;1275;24685;-79
2023/12/05 05:35:12;;;;;;;24.10;13.00;;;;;;;-4.24;78.57;95630.81;106700;1275;25402;-79
2023/12/05 05:37:40;;;;;;;23.20;11.80;;;;;;;-4.24;78.60;95631.48;106863;1275;22783;-79
2023/12/05 05:40:09;;;;;;;31.00;15.80;;;;;;;-4.24;78.60;95634.23;106672;1275;25290;-79
2023/12/05 05:42:37;;;;;;;33.50;16.60;;;;;;;-4.25;78.69;95643.16;106696;1275;25711;-79
2023/12/05 05:45:06;;;;;;;52.20;29.20;;;;;;;-4.26;78.88;95645.35;106848;1275;24224;-79
2023/12/05 05:47:34;;;;;;;22.80;13.10;;;;;;;-4.26;78.82;95637.76;106800;1275;22751;-79
2023/12/05 05:50:03;;;;;;;23.00;12.50;;;;;;;-4.27;78.62;95633.24;107001;1275;24344;-79
2023/12/05 05:52:32;;;;;;;21.70;10.50;;;;;;;-4.29;78.98;95638.70;106980;1275;25677;-79
2023/12/05 05:55:00;;;;;;;18.00;11.10;;;;;;;-4.28;78.97;95639.23;106911;1275;25346;-79
2023/12/05 05:57:29;;;;;;;19.90;10.70;;;;;;;-4.27;78.94;95640.16;107009;1275;24400;-81
2023/12/05 05:59:57;;;;;;;17.40;9.60;;;;;;;-4.26;79.43;95637.94;106770;1275;24270;-79
2023/12/05 06:02:25;;;;;;;17.50;9.90;;;;;;;-4.26;79.42;95639.65;106618;1275;22529;-80
2023/12/05 06:04:53;;;;;;;19.50;9.40;;;;;;;-4.26;79.49;95634.33;106674;1275;25355;-77
2023/12/05 06:07:23;;;;;;;49.30;29.10;;;;;;;-4.27;79.45;95628.13;106585;1275;25355;-78
2023/12/05 06:09:51;;;;;;;23.00;12.70;;;;;;;-4.25;79.46;95634.21;106579;1275;22638;-77
2023/12/05 06:12:19;;;;;;;23.70;11.30;;;;;;;-4.22;79.32;95637.94;106587;1275;25338;-79
2023/12/05 06:14:49;;;;;;;20.20;9.10;;;;;;;-4.19;79.34;95641.30;106848;1275;22521;-81
2023/12/05 06:17:17;;;;;;;21.80;11.20;;;;;;;-4.21;79.14;95641.40;106705;1262;23064;-78
2023/12/05 06:19:45;;;;;;;17.60;10.40;;;;;;;-4.20;79.14;95644.55;106677;1258;22535;-79
2023/12/05 06:22:13;;;;;;;22.60;11.50;;;;;;;-4.18;79.17;95647.20;106776;1275;22527;-76
2023/12/05 06:24:41;;;;;;;23.00;11.90;;;;;;;-4.17;79.26;95653.95;107008;1275;24286;-77
2023/12/05 06:27:10;;;;;;;19.70;10.70;;;;;;;-4.14;79.43;95656.27;106573;1275;22520;-79
2023/12/05 06:29:38;;;;;;;15.80;8.70;;;;;;;-4.12;79.29;95654.27;106605;1275;24325;-78
2023/12/05 06:32:06;;;;;;;18.00;9.50;;;;;;;-4.09;79.10;95655.27;106790;1275;22528;-78
2023/12/05 06:34:35;;;;;;;16.10;8.60;;;;;;;-4.05;78.87;95653.33;106708;1275;22540;-78
2023/12/05 06:37:03;;;;;;;18.50;9.30;;;;;;;-4.03;79.00;95648.63;106855;1271;24779;-77
2023/12/05 06:39:31;;;;;;;17.90;9.60;;;;;;;-3.99;78.93;95646.55;107000;1275;22532;-78
2023/12/05 06:42:00;;;;;;;16.90;9.30;;;;;;;-3.95;79.04;95645.33;106969;1275;22521;-77
2023/12/05 06:44:28;;;;;;;18.20;9.90;;;;;;;-3.93;78.97;95645.89;106802;1275;22522;-78
2023/12/05 06:46:56;;;;;;;14.10;8.70;;;;;;;-3.94;79.35;95642.09;106600;1275;22527;-76
2023/12/05 06:49:24;;;;;;;15.90;8.60;;;;;;;-3.95;79.46;95644.61;106721;1275;23010;-78
2023/12/05 06:51:57;;;;;;;18.20;10.10;;;;;;;-3.96;79.38;95645.11;106834;1275;25361;-79
2023/12/05 06:54:26;;;;;;;16.70;10.10;;;;;;;-3.94;79.36;95643.79;106701;1275;24277;-77
2023/12/05 06:56:54;;;;;;;20.50;11.50;;;;;;;-3.91;79.29;95645.29;106618;1275;22528;-79
2023/12/05 06:59:22;;;;;;;21.00;11.90;;;;;;;-3.88;79.41;95644.86;106972;1275;22526;-79
2023/12/05 07:01:50;;;;;;;18.90;9.80;;;;;;;-3.85;79.36;95642.23;107003;1275;22803;-79
2023/12/05 07:04:19;;;;;;;21.70;11.50;;;;;;;-3.84;79.13;95637.13;106670;1275;24093;-79
2023/12/05 07:06:47;;;;;;;23.30;12.70;;;;;;;-3.80;79.19;95636.75;106796;1275;25380;-80
2023/12/05 07:09:15;;;;;;;25.40;13.50;;;;;;;-3.76;79.23;95634.51;106679;1255;22668;-81
2023/12/05 07:11:44;;;;;;;26.40;14.20;;;;;;;-3.71;79.39;95634.69;106640;1275;24389;-79
2023/12/05 07:14:13;;;;;;;22.30;12.50;;;;;;;-3.64;79.10;95637.33;106626;1275;22598;-79
2023/12/05 07:16:41;;;;;;;29.00;13.30;;;;;;;-3.57;79.18;95639.66;106571;1275;24956;-78
2023/12/05 07:19:09;;;;;;;40.90;17.90;;;;;;;-3.46;78.92;95632.30;106779;1275;25712;-80
2023/12/05 07:21:37;;;;;;;120.40;47.00;;;;;;;-3.35;78.78;95632.36;106983;1275;22540;-78
2023/12/05 07:24:06;;;;;;;77.60;32.10;;;;;;;-3.29;77.99;95631.87;106602;1275;22531;-79
2023/12/05 07:26:35;;;;;;;28.90;13.90;;;;;;;-3.26;77.76;95630.45;106875;1275;23593;-79
2023/12/05 07:29:03;;;;;;;28.30;14.90;;;;;;;-3.19;77.89;95624.81;106803;1275;22527;-78
2023/12/05 07:31:31;;;;;;;29.30;14.90;;;;;;;-3.09;77.63;95619.48;106933;1265;24034;-78
2023/12/05 07:33:59;;;;;;;26.90;15.10;;;;;;;-2.98;76.84;95619.31;106928;1274;22551;-76
2023/12/05 07:36:28;;;;;;;25.00;15.20;;;;;;;-2.92;75.77;95622.12;106963;1274;25341;-78
2023/12/05 07:38:56;;;;;;;25.30;14.20;;;;;;;-2.82;76.50;95619.34;106985;1257;25589;-79
2023/12/05 07:41:25;;;;;;;25.90;14.30;;;;;;;-2.70;76.21;95623.19;106843;1274;22538;-79
2023/12/05 07:43:53;;;;;;;28.10;16.30;;;;;;;-2.66;75.42;95617.97;106722;1275;22581;-80
2023/12/05 07:46:21;;;;;;;28.80;16.90;;;;;;;-2.56;75.61;95619.34;106820;1275;24381;-80
2023/12/05 07:48:49;;;;;;;52.40;27.80;;;;;;;-2.45;75.01;95616.92;106945;1275;25575;-81
2023/12/05 07:51:18;;;;;;;32.20;18.20;;;;;;;-2.33;75.21;95615.39;107061;1275;22526;-82
2023/12/05 07:53:50;;;;;;;25.30;14.40;;;;;;;-2.33;74.06;95614.52;106914;1275;22556;-81
2023/12/05 07:56:18;;;;;;;19.80;12.40;;;;;;;-2.42;73.76;95608.57;106633;1275;22526;-79
2023/12/05 07:58:47;;;;;;;38.60;22.30;;;;;;;-2.43;74.03;95610.78;106728;1275;25498;-79
2023/12/05 08:01:15;;;;;;;42.90;24.80;;;;;;;-2.45;73.76;95611.77;106712;1275;22648;-79
2023/12/05 08:03:43;;;;;;;33.30;16.70;;;;;;;-2.52;73.79;95608.06;106726;1263;22593;-80
2023/12/05 08:06:12;;;;;;;57.20;31.20;;;;;;;-2.53;74.34;95607.19;106745;1275;25468;-81
2023/12/05 08:08:40;;;;;;;27.90;15.20;;;;;;;-2.45;75.07;95605.38;106900;1275;22652;-78
2023/12/05 08:11:11;;;;;;;29.20;14.80;;;;;;;-2.41;74.53;95613.94;106769;1275;24351;-79
2023/12/05 08:13:40;;;;;;;20.80;12.80;;;;;;;-2.37;74.66;95610.80;106780;1275;22530;-79
2023/12/05 08:16:08;;;;;;;23.10;12.20;;;;;;;-2.36;74.37;95611.69;106801;1275;24224;-80
2023/12/05 08:18:37;;;;;;;34.40;19.80;;;;;;;-2.31;74.36;95613.58;106818;1274;24473;-79
2023/12/05 08:21:06;;;;;;;28.90;15.90;;;;;;;-2.22;74.79;95611.77;106988;1270;22536;-80
2023/12/05 08:23:35;;;;;;;27.90;15.90;;;;;;;-2.12;74.56;95607.23;107619;1274;22524;-80
2023/12/05 08:26:04;;;;;;;25.20;13.50;;;;;;;-2.04;74.41;95610.92;106864;1274;24250;-78
2023/12/05 08:28:34;;;;;;;186.60;66.50;;;;;;;-2.01;74.27;95602.40;107022;1274;22696;-77
2023/12/05 08:31:03;;;;;;;24.00;13.50;;;;;;;-1.92;74.64;95601.62;106707;1275;25524;-81
2023/12/05 08:33:31;;;;;;;23.00;12.80;;;;;;;-1.95;74.08;95606.39;106687;1275;24473;-81
2023/12/05 08:36:01;;;;;;;25.10;12.40;;;;;;;-1.92;74.05;95617.15;106740;1275;22918;-80
2023/12/05 08:38:29;;;;;;;28.20;15.00;;;;;;;-1.90;73.97;95608.57;106725;1275;22594;-78
2023/12/05 08:40:58;;;;;;;17.90;11.50;;;;;;;-1.90;73.96;95601.85;106871;1275;25252;-79
2023/12/05 08:43:26;;;;;;;39.80;18.60;;;;;;;-1.88;73.94;95599.83;107127;1275;23435;-78
2023/12/05 08:45:54;;;;;;;33.40;17.10;;;;;;;-1.85;74.18;95602.17;106828;1275;22531;-77
2023/12/05 08:48:22;;;;;;;26.40;16.20;;;;;;;-1.82;74.11;95602.61;106740;1275;24916;-79
2023/12/05 08:50:51;;;;;;;23.60;13.70;;;;;;;-1.86;73.49;95600.94;106873;1275;22535;-79
2023/12/05 08:53:19;;;;;;;25.00;14.40;;;;;;;-1.89;73.68;95595.87;106725;1275;25376;-78
2023/12/05 08:55:52;;;;;;;25.30;14.00;;;;;;;-1.88;73.76;95589.16;106713;1275;22545;-79
2023/12/05 08:58:20;;;;;;;21.00;12.20;;;;;;;-1.87;73.70;95592.28;106843;1275;23487;-80
2023/12/05 09:00:49;;;;;;;19.80;11.80;;;;;;;-1.87;73.82;95595.40;106788;1275;22532;-79
2023/12/05 09:03:18;;;;;;;113.40;52.50;;;;;;;-1.82;73.88;95598.29;106790;1275;22514;-79
2023/12/05 09:05:47;;;;;;;34.20;18.50;;;;;;;-1.73;73.95;95597.86;106735;1275;25677;-78
2023/12/05 09:08:16;;;;;;;30.60;17.10;;;;;;;-1.67;73.58;95608.20;106760;1275;22527;-79
2023/12/05 09:10:44;;;;;;;22.20;14.00;;;;;;;-1.64;73.43;95604.34;106807;1275;22558;-78
2023/12/05 09:13:14;;;;;;;29.60;16.50;;;;;;;-1.57;73.73;95596.08;106863;1275;22530;-79
2023/12/05 09:15:43;;;;;;;97.50;45.20;;;;;;;-1.49;73.88;95593.02;106805;1275;22521;-78
2023/12/05 09:18:12;;;;;;;21.00;13.20;;;;;;;-1.44;73.48;95588.84;106708;1275;22648;-80
2023/12/05 09:20:41;;;;;;;29.30;15.70;;;;;;;-1.44;72.89;95584.02;106888;1270;22530;-80
2023/12/05 09:23:11;;;;;;;65.20;30.10;;;;;;;-1.44;73.05;95582.45;106686;1275;22537;-79
2023/12/05 09:25:39;;;;;;;19.30;11.10;;;;;;;-1.42;72.75;95589.74;106659;1275;25346;-76
2023/12/05 09:28:08;;;;;;;23.10;12.50;;;;;;;-1.47;72.48;95581.83;106508;1275;22539;-77
2023/12/05 09:30:36;;;;;;;38.50;20.30;;;;;;;-1.42;72.96;95580.95;106658;1275;24292;-77
2023/12/05 09:33:05;;;;;;;20.70;12.30;;;;;;;-1.43;72.37;95582.14;106843;1273;22628;-76
2023/12/05 09:35:33;;;;;;;27.30;16.10;;;;;;;-1.38;72.88;95577.26;106817;1268;22611;-77
2023/12/05 09:38:02;;;;;;;35.10;19.40;;;;;;;-1.26;73.22;95572.57;106722;1276;24400;-80
2023/12/05 09:40:31;;;;;;;22.30;13.00;;;;;;;-1.16;73.04;95568.17;106830;1276;22552;-78
2023/12/05 09:43:01;;;;;;;22.80;12.20;;;;;;;-1.11;72.77;95565.20;106731;1276;25255;-79
2023/12/05 09:45:40;;;;;;;52.30;30.60;;;;;;;-1.06;72.95;95562.39;106578;1276;25308;-77
2023/12/05 09:48:10;;;;;;;27.00;16.10;;;;;;;-0.99;72.95;95561.35;106557;1276;22530;-77
2023/12/05 09:50:40;;;;;;;25.90;15.40;;;;;;;-0.93;72.79;95563.76;106609;1276;22534;-76
2023/12/05 09:53:10;;;;;;;26.40;16.20;;;;;;;-0.89;72.67;95559.55;106496;1276;25259;-76
2023/12/05 09:55:39;;;;;;;26.70;15.40;;;;;;;-0.82;72.64;95556.42;106709;1276;22803;-76
2023/12/05 09:58:11;;;;;;;32.30;18.90;;;;;;;-0.74;72.46;95549.70;106486;1276;25252;-76
2023/12/05 10:00:39;;;;;;;36.80;21.00;;;;;;;-0.76;71.95;95554.84;106594;1276;25429;-76
2023/12/05 10:03:12;;;;;;;25.90;15.60;;;;;;;-0.78;72.01;95555.85;106748;1276;22529;-75
2023/12/05 10:05:43;;;;;;;45.30;26.50;;;;;;;-0.79;72.11;95559.95;106606;1276;22543;-75
2023/12/05 10:08:12;;;;;;;29.90;17.40;;;;;;;-0.84;71.73;95558.64;106506;1276;22653;-75
2023/12/05 10:10:47;;;;;;;42.10;22.00;;;;;;;-0.85;71.98;95562.73;106846;1276;22548;-76
2023/12/05 10:13:17;;;;;;;32.70;20.30;;;;;;;-0.87;71.80;95560.29;106731;1274;22533;-75
2023/12/05 10:15:45;;;;;;;59.70;36.00;;;;;;;-0.88;72.05;95558.55;106662;1276;22528;-75
2023/12/05 10:18:14;;;;;;;60.10;39.50;;;;;;;-0.89;72.20;95558.35;106702;1276;24274;-76
2023/12/05 10:20:45;;;;;;;46.50;28.20;;;;;;;-0.88;72.09;95556.45;106643;1276;22530;-75
2023/12/05 10:23:13;;;;;;;24.90;16.80;;;;;;;-0.88;72.16;95553.87;106786;1261;24362;-75
2023/12/05 10:25:43;;;;;;;25.90;17.40;;;;;;;-0.86;72.25;95552.70;106792;1276;22642;-75
2023/12/05 10:28:12;;;;;;;27.80;16.70;;;;;;;-0.86;72.03;95550.11;106688;1276;22534;-75
2023/12/05 10:30:41;;;;;;;31.40;20.50;;;;;;;-0.85;72.20;95546.67;106707;1276;25303;-75
2023/12/05 10:33:11;;;;;;;30.20;20.30;;;;;;;-0.82;72.22;95545.36;106618;1276;24224;-75
2023/12/05 10:35:41;;;;;;;22.50;14.20;;;;;;;-0.80;72.26;95539.71;106647;1276;25454;-75
2023/12/05 10:38:13;;;;;;;27.10;17.60;;;;;;;-0.76;72.20;95538.59;106620;1276;22644;-75
2023/12/05 10:40:55;;;;;;;24.60;14.20;;;;;;;-0.74;72.28;95533.47;106597;1276;22523;-75
2023/12/05 10:43:26;;;;;;;23.10;13.20;;;;;;;-0.71;72.12;95533.71;106583;1276;22532;-75
2023/12/05 10:45:56;;;;;;;23.00;13.50;;;;;;;-0.70;71.99;95535.31;106642;1276;23941;-75
2023/12/05 10:48:25;;;;;;;25.10;15.70;;;;;;;-0.67;71.99;95533.30;106574;1276;24381;-75
2023/12/05 10:50:56;;;;;;;22.40;15.00;;;;;;;-0.64;72.08;95531.46;106678;1276;22539;-75
2023/12/05 10:53:26;;;;;;;19.50;11.40;;;;;;;-0.63;72.03;95529.75;106651;1276;22798;-75
2023/12/05 10:55:54;;;;;;;19.30;12.00;;;;;;;-0.62;71.93;95530.47;106602;1276;22519;-76
2023/12/05 10:58:24;;;;;;;23.20;12.60;;;;;;;-0.59;72.18;95529.50;106599;1276;25347;-75
2023/12/05 11:00:52;;;;;;;18.90;11.10;;;;;;;-0.56;71.99;95526.98;106642;1276;24042;-75
2023/12/05 11:03:21;;;;;;;22.70;11.20;;;;;;;-0.54;71.77;95525.65;106607;1269;22676;-75
2023/12/05 11:05:50;;;;;;;20.70;10.90;;;;;;;-0.52;71.68;95530.70;106721;1276;22650;-75
2023/12/05 11:08:18;;;;;;;17.30;10.60;;;;;;;-0.52;71.74;95529.16;106523;1276;22535;-75
2023/12/05 11:10:48;;;;;;;17.10;10.90;;;;;;;-0.48;71.91;95525.61;106568;1276;22798;-75
2023/12/05 11:13:16;;;;;;;15.80;10.10;;;;;;;-0.45;71.88;95520.68;106719;1276;22531;-75
2023/12/05 11:15:48;;;;;;;19.90;11.00;;;;;;;-0.40;71.92;95523.38;106572;1276;22586;-75
2023/12/05 11:18:32;;;;;;;17.60;10.60;;;;;;;-0.36;71.67;95519.64;106602;1276;23900;-75